Playa Del Carmen, ROO, Mexico
Current Conditions -  °F | °C
As of 5:51 PM on Friday 28 Nov 2014 (Local Time) from MMCZ Reporting Station
Scattered Clouds Scattered Clouds  
Wind Chill: 70°   Ceiling: Unl
Heat Index: 70°   Visibility: 7mi
Dew Point: 61°   Wind: 9mph
Humidity: 73%   Direction: 50°NE
Pressure: 30.11"   Gusts: 21mph
Location:  20.62°N, 87.07°W
Report Text: MMCZ 282351Z 05008G18KT 7SM SCT015 21/16 A3011 RMK SLP192 57013 957 8/500 RTS
Loading
Personal Weather Stations






























Interactive Weather Map New forecast layout! Learn more

10-Day Weather Forecast

Advertisements
Track Severe Weather on mobile